Aérodrome :
LOGIN :

S'inscrire | Disclaimer

   EN    FR    IT 

 










Légende :    VFR   VFR Marginal   IFR   IFR Intensif   IFR Très Intensif
Visi : 
Plafond : 
>= 8 km
>= 3000ft
5 à 8 km
1000 à 3000 ft
1500m à 5 km
500 à 1000 ft
800 à 1500m
200 à 500 ft
< 800m
< 200 ft
Symboles :   Orages  Brouillard  Fortes neiges  Fortes précipitations  Vent > 20 kt
SIGMETs :   Divers  Orages  Givrage  Turbulence  Onde Orograph.  Cendres Volcan.






- Altitude de l'aérodrome : 1197 ft
- Code IATA : SPM


ETAD - Spangdahlem Ab

DERNIER METAR :
  • 260510Z AUTO 09004KT 9999 CLR 13/10 A3001 RMK AO2 SLP152 $

METARs EXPIRÉS :
  • 260455Z AUTO 08004KT 6000 BR CLR 12/10 A3001 RMK AO2 SLP152 T01210103 $
  • 260355Z AUTO 09006KT 6000 BR CLR 10/09 A3001 RMK AO2 SLP154 T01020091 $
  • 260255Z AUTO 08005KT 9999 CLR 11/10 A3002 RMK AO2 SLP157 T01070096 58005 $
  • 260155Z AUTO 08005KT 9999 CLR 11/10 A3003 RMK AO2 SLP160 T01120098 $
  • 260055Z AUTO 08005KT 9999 CLR 12/10 A3003 RMK AO2 SLP160 T01180102 $
  • 260025Z AUTO 08004KT 9999 CLR 12/10 A3003 RMK AO2 SLP160 $
  • 260010Z AUTO 07004KT 6000 BR CLR 12/10 A3003 RMK AO2 SLP160 $

TAF COR TAF ETAD
Valide du 25 à 14h jusqu'au 26 à 20h UTC


251438Z 2514/2620 25009KT 9999 SCT025 BKN050 QNH3004INS
TEMPO 2514/2516 8000 -RA BKN025
BECMG 2519/2520 11006KT 9999 BKN025 QNH3005INS
BECMG 2600/2601 08003KT 5000 BR SCT020 QNH3005INS
BECMG 2606/2607 08006KT 9999 NSW SCT200 QNH3003INS
BECMG 2610/2611 17010G18KT 9999 SCT100 QNH2997INS TX19/2514Z TN11/2606Z LAST NO AMDS AFT 2514Z NEXT 2610Z



MET'MAP, la Météo Aéronautique d'un coup d'oeil ! - Copyright ORBIFLY Décembre 2007 - Disclaimer

ORBIFLY MET'MAP TEAM :

Programmation & Développement : Alexandra Zaïnal
Sur une idée originale de : Baudouin d'Aumeries
Soutien technique & logistique : Manuel Goepfert
Assistance : Marc-Olivier Méhu




SOURCES & CREDITS :

   NOAA